Time;durP1;ratioP1;P1;durP2;ratioP2;P2;SDS_P1;SDS_P2;PMS_P1;PMS_P2;Temp;Humidity;BMP_temperature;BMP_pressure;BME280_temperature;BME280_humidity;BME280_pressure;Samples;Min_cycle;Max_cycle;Signal;HPM_P1;HPM_P2
2022/04/07 00:01:15;;;;;;;1.40;0.70;;;11.80;99.90;;;;;;5054537;28;20028;-77
2022/04/07 00:03:41;;;;;;;1.10;0.73;;;11.80;99.90;;;;;;5073370;28;20453;-77
2022/04/07 00:06:09;;;;;;;2.97;1.00;;;11.80;99.90;;;;;;5072883;28;20369;-77
2022/04/07 00:08:39;;;;;;;2.20;0.68;;;11.80;99.90;;;;;;5055341;28;20020;-77
2022/04/07 00:11:04;;;;;;;1.73;0.80;;;11.80;99.90;;;;;;5055099;28;20121;-77
2022/04/07 00:13:30;;;;;;;1.35;0.60;;;11.80;99.90;;;;;;5055369;28;20034;-77
2022/04/07 00:15:58;;;;;;;1.02;0.52;;;11.80;99.90;;;;;;5055413;28;20031;-77
2022/04/07 00:18:23;;;;;;;1.38;0.80;;;11.80;99.90;;;;;;5055512;28;20025;-77
2022/04/07 00:20:52;;;;;;;2.10;0.60;;;11.80;99.90;;;;;;5055613;28;20354;-77
2022/04/07 00:23:18;;;;;;;1.83;0.60;;;11.80;99.90;;;;;;5054528;28;20051;-77
2022/04/07 00:25:44;;;;;;;1.10;0.60;;;11.80;99.90;;;;;;5055220;28;20544;-77
2022/04/07 00:28:09;;;;;;;1.30;0.70;;;11.80;99.90;;;;;;5072573;28;20048;-77
2022/04/07 00:30:37;;;;;;;1.23;0.50;;;11.80;99.90;;;;;;5055265;28;20052;-77
2022/04/07 00:33:04;;;;;;;3.03;0.70;;;11.70;99.90;;;;;;5054736;28;20021;-78
2022/04/07 00:35:30;;;;;;;0.80;0.55;;;11.70;99.90;;;;;;5055079;28;20085;-77
2022/04/07 00:37:55;;;;;;;1.10;0.60;;;11.70;99.90;;;;;;5055291;28;20449;-77
2022/04/07 00:40:21;;;;;;;2.70;0.77;;;11.70;99.90;;;;;;5054427;28;20021;-77
2022/04/07 00:42:49;;;;;;;3.08;0.70;;;11.70;99.90;;;;;;5055532;28;20094;-77
2022/04/07 00:45:15;;;;;;;2.25;0.68;;;11.60;99.90;;;;;;5076083;28;20024;-77
2022/04/07 00:47:42;;;;;;;2.35;0.73;;;11.50;99.90;;;;;;5058681;28;20158;-77
2022/04/07 00:50:10;;;;;;;1.23;0.80;;;11.60;99.90;;;;;;5058276;28;20373;-78
2022/04/07 00:52:42;;;;;;;1.27;0.60;;;11.50;99.90;;;;;;5076374;28;20022;-77
2022/04/07 00:55:10;;;;;;;1.15;0.50;;;11.50;99.90;;;;;;5076012;28;20050;-77
2022/04/07 00:57:37;;;;;;;1.63;0.70;;;11.40;99.90;;;;;;5058412;28;20123;-77
2022/04/07 01:00:05;;;;;;;0.85;0.52;;;11.50;99.90;;;;;;5075766;28;20048;-77
2022/04/07 01:02:30;;;;;;;1.80;0.50;;;11.40;99.90;;;;;;5076272;28;20021;-77
2022/04/07 01:04:57;;;;;;;0.90;0.50;;;11.40;99.90;;;;;;5076132;28;20040;-77
2022/04/07 01:07:26;;;;;;;1.30;0.70;;;11.40;99.90;;;;;;5057808;28;20040;-76
2022/04/07 01:09:52;;;;;;;1.40;0.30;;;11.40;99.90;;;;;;5058439;28;20028;-77
2022/04/07 01:12:18;;;;;;;0.82;0.43;;;11.40;99.90;;;;;;5057588;28;20024;-77
2022/04/07 01:15:13;;;;;;;1.77;0.57;;;11.40;99.90;;;;;;5058419;28;20024;-77
2022/04/07 01:17:39;;;;;;;0.52;0.30;;;11.50;99.90;;;;;;5045235;28;20045;-77
2022/04/07 01:20:06;;;;;;;0.95;0.40;;;11.50;99.90;;;;;;5075624;28;20022;-77
2022/04/07 01:22:38;;;;;;;0.50;0.30;;;11.50;99.90;;;;;;5075621;28;20040;-78
2022/04/07 01:25:04;;;;;;;0.88;0.45;;;11.50;99.90;;;;;;5058033;28;20016;-77
2022/04/07 01:27:30;;;;;;;1.15;0.40;;;11.50;99.90;;;;;;5057962;28;20066;-77
2022/04/07 01:29:57;;;;;;;0.57;0.30;;;11.50;99.90;;;;;;5075891;28;20074;-77
2022/04/07 01:32:31;;;;;;;0.22;0.22;;;11.50;99.90;;;;;;5075320;28;20193;-77
2022/04/07 01:34:57;;;;;;;0.50;0.32;;;11.50;99.90;;;;;;5058164;28;20107;-76
2022/04/07 01:37:23;;;;;;;0.35;0.30;;;11.50;99.90;;;;;;5057479;28;20178;-77
2022/04/07 01:39:51;;;;;;;0.73;0.40;;;11.50;99.90;;;;;;5057316;28;20081;-77
2022/04/07 01:42:17;;;;;;;4.47;0.35;;;11.50;99.90;;;;;;5057530;28;20029;-77
2022/04/07 01:44:52;;;;;;;0.20;0.20;;;11.50;99.90;;;;;;5057898;28;20016;-77
2022/04/07 01:47:21;;;;;;;1.88;0.40;;;11.40;99.90;;;;;;5056854;28;20143;-77
2022/04/07 01:49:55;;;;;;;0.50;0.43;;;11.40;99.90;;;;;;5057581;28;20454;-76
2022/04/07 01:52:21;;;;;;;0.82;0.30;;;11.30;99.90;;;;;;5057069;28;20017;-77
2022/04/07 01:54:48;;;;;;;2.85;0.50;;;11.30;99.90;;;;;;5056827;28;20472;-77
2022/04/07 01:57:15;;;;;;;0.35;0.35;;;11.20;99.90;;;;;;5056641;28;20035;-77
2022/04/07 01:59:41;;;;;;;0.30;0.30;;;11.20;99.90;;;;;;5074803;28;20093;-77
2022/04/07 02:02:07;;;;;;;1.65;0.63;;;11.20;99.90;;;;;;5056653;28;20047;-77
2022/04/07 02:04:33;;;;;;;1.13;0.50;;;11.20;99.90;;;;;;5074960;28;20353;-76
2022/04/07 02:06:59;;;;;;;0.50;0.40;;;11.20;99.90;;;;;;5074838;28;20381;-77
2022/04/07 02:09:24;;;;;;;1.45;0.30;;;11.10;99.90;;;;;;5074682;28;20387;-78
2022/04/07 02:11:50;;;;;;;0.63;0.30;;;11.10;99.90;;;;;;5057143;28;20111;-76
2022/04/07 02:14:15;;;;;;;0.52;0.28;;;11.00;99.90;;;;;;5056472;28;20073;-77
2022/04/07 02:16:41;;;;;;;1.08;0.50;;;11.00;99.90;;;;;;5074375;28;20020;-77
2022/04/07 02:19:08;;;;;;;0.60;0.40;;;11.00;99.90;;;;;;5055958;28;20020;-77
2022/04/07 02:21:34;;;;;;;0.95;0.40;;;11.00;99.90;;;;;;5056780;28;20177;-77
2022/04/07 02:23:59;;;;;;;1.27;0.40;;;10.90;99.90;;;;;;5074560;28;20517;-77
2022/04/07 02:26:25;;;;;;;0.50;0.40;;;10.90;99.90;;;;;;5074105;28;20591;-77
2022/04/07 02:28:50;;;;;;;0.82;0.40;;;10.90;99.90;;;;;;5056930;28;20040;-77
2022/04/07 02:31:16;;;;;;;0.50;0.45;;;10.90;99.90;;;;;;5073977;28;20021;-77
2022/04/07 02:33:42;;;;;;;0.30;0.28;;;10.90;99.90;;;;;;5056592;28;20040;-76
2022/04/07 02:36:08;;;;;;;1.40;0.60;;;10.90;99.90;;;;;;5056220;28;20024;-78
2022/04/07 02:38:36;;;;;;;1.30;0.52;;;10.90;99.90;;;;;;5056229;28;20115;-77
2022/04/07 02:41:02;;;;;;;1.58;0.47;;;10.90;99.90;;;;;;5056453;28;20024;-77
2022/04/07 02:43:28;;;;;;;0.63;0.40;;;10.90;99.90;;;;;;5073540;28;20428;-77
2022/04/07 02:45:54;;;;;;;2.13;0.45;;;10.90;99.90;;;;;;5056426;28;20347;-77
2022/04/07 02:48:20;;;;;;;0.50;0.40;;;10.90;99.90;;;;;;5055852;28;20082;-77
2022/04/07 02:50:45;;;;;;;1.15;0.50;;;10.90;99.90;;;;;;5074222;28;20066;-77
2022/04/07 02:53:13;;;;;;;0.90;0.30;;;11.00;99.90;;;;;;5073574;28;20126;-78
2022/04/07 02:55:39;;;;;;;0.40;0.20;;;11.00;99.90;;;;;;5073954;28;20017;-78
2022/04/07 02:58:04;;;;;;;0.47;0.30;;;11.00;99.90;;;;;;5073993;28;20078;-77
2022/04/07 03:00:30;;;;;;;0.60;0.30;;;11.00;99.90;;;;;;5055461;28;20357;-77
2022/04/07 03:02:55;;;;;;;1.00;0.30;;;11.00;99.90;;;;;;5056030;28;20450;-78
2022/04/07 03:05:21;;;;;;;3.60;0.40;;;11.10;99.90;;;;;;5072583;28;20459;-77
2022/04/07 03:07:47;;;;;;;0.40;0.30;;;11.00;99.90;;;;;;5055688;28;20377;-78
2022/04/07 03:10:12;;;;;;;2.47;0.40;;;11.10;99.90;;;;;;5055492;28;20036;-77
2022/04/07 03:12:38;;;;;;;1.25;0.40;;;11.10;99.90;;;;;;5055922;28;20402;-78
2022/04/07 03:15:05;;;;;;;0.40;0.30;;;11.10;99.90;;;;;;5073670;28;20519;-77
2022/04/07 03:17:33;;;;;;;0.20;0.20;;;11.10;99.90;;;;;;5055082;28;20060;-77
2022/04/07 03:19:59;;;;;;;0.82;0.40;;;11.10;99.90;;;;;;5073430;28;20016;-77
2022/04/07 03:22:25;;;;;;;0.50;0.30;;;11.20;99.90;;;;;;5072806;28;20474;-78
2022/04/07 03:24:52;;;;;;;1.08;0.30;;;11.10;99.90;;;;;;5073330;28;20460;-77
2022/04/07 03:27:18;;;;;;;0.45;0.32;;;11.20;99.90;;;;;;5054623;28;20115;-77
2022/04/07 03:29:43;;;;;;;0.47;0.20;;;11.20;99.90;;;;;;5055405;28;20150;-77
2022/04/07 03:32:09;;;;;;;0.57;0.20;;;11.20;99.90;;;;;;5055509;28;20029;-77
2022/04/07 03:34:36;;;;;;;0.22;0.20;;;11.20;99.90;;;;;;5073523;28;20414;-77
2022/04/07 03:37:03;;;;;;;0.45;0.40;;;11.20;99.90;;;;;;5055321;28;20127;-77
2022/04/07 03:39:29;;;;;;;1.10;0.47;;;11.20;99.90;;;;;;5055224;28;20028;-77
2022/04/07 03:41:54;;;;;;;1.77;0.30;;;11.20;99.90;;;;;;5073360;28;20028;-77
2022/04/07 03:44:20;;;;;;;0.98;0.38;;;11.20;99.90;;;;;;5054901;28;20067;-78
2022/04/07 03:46:46;;;;;;;1.20;0.50;;;11.20;99.90;;;;;;5055656;28;20124;-77
2022/04/07 03:49:11;;;;;;;0.47;0.30;;;11.20;99.90;;;;;;5072845;28;20434;-78
2022/04/07 03:51:37;;;;;;;1.98;0.40;;;11.20;99.90;;;;;;5055572;28;20507;-78
2022/04/07 03:54:03;;;;;;;1.27;0.35;;;11.10;99.90;;;;;;5073547;28;20020;-77
2022/04/07 03:56:28;;;;;;;0.38;0.30;;;11.10;99.90;;;;;;5055071;28;20025;-78
2022/04/07 03:58:55;;;;;;;0.55;0.32;;;11.10;99.90;;;;;;5055455;28;20029;-77
2022/04/07 04:01:21;;;;;;;1.25;0.30;;;11.00;99.90;;;;;;5072914;28;20024;-78
2022/04/07 04:03:47;;;;;;;0.40;0.30;;;11.10;99.90;;;;;;5055396;28;20024;-77
2022/04/07 04:06:12;;;;;;;1.63;0.35;;;11.10;99.90;;;;;;5072701;28;20020;-78
2022/04/07 04:08:38;;;;;;;0.98;0.30;;;11.10;99.90;;;;;;5055237;28;20083;-77
2022/04/07 04:11:03;;;;;;;1.00;0.35;;;11.00;99.90;;;;;;5073137;28;20077;-77
2022/04/07 04:13:31;;;;;;;0.73;0.60;;;11.00;99.90;;;;;;5072608;28;20032;-77
2022/04/07 04:15:57;;;;;;;0.70;0.30;;;11.00;99.90;;;;;;5055453;28;20032;-77
2022/04/07 04:18:23;;;;;;;0.52;0.35;;;11.10;99.90;;;;;;5058113;28;20059;-77
2022/04/07 04:20:49;;;;;;;1.60;0.40;;;11.10;99.90;;;;;;5059242;28;20054;-77
2022/04/07 04:23:14;;;;;;;1.98;0.50;;;11.00;99.90;;;;;;5058781;28;20056;-77
2022/04/07 04:25:40;;;;;;;1.25;0.47;;;11.00;99.90;;;;;;5076989;28;20454;-77
2022/04/07 04:28:06;;;;;;;0.60;0.40;;;11.00;99.90;;;;;;5059087;28;20017;-77
2022/04/07 04:30:31;;;;;;;1.08;0.40;;;11.00;99.90;;;;;;5076525;28;20016;-77
2022/04/07 04:32:57;;;;;;;1.25;0.30;;;11.00;99.90;;;;;;5077137;28;20429;-78
2022/04/07 04:35:23;;;;;;;0.75;0.40;;;11.00;99.90;;;;;;5058989;28;20056;-78
2022/04/07 04:37:48;;;;;;;2.00;0.47;;;10.90;99.90;;;;;;5059406;28;20117;-78
2022/04/07 04:40:14;;;;;;;2.17;0.57;;;10.90;99.90;;;;;;5058731;28;20028;-79
2022/04/07 04:42:41;;;;;;;1.08;0.50;;;10.90;99.90;;;;;;5059300;28;20025;-78
2022/04/07 04:45:07;;;;;;;0.55;0.32;;;10.90;99.90;;;;;;5059054;28;20404;-78
2022/04/07 04:47:33;;;;;;;1.30;0.50;;;10.90;99.90;;;;;;5058862;28;20035;-78
2022/04/07 04:49:59;;;;;;;1.25;0.30;;;10.80;99.90;;;;;;5059185;28;20368;-78
2022/04/07 04:52:24;;;;;;;1.45;0.40;;;10.80;99.90;;;;;;5058605;28;20073;-78
2022/04/07 04:54:50;;;;;;;0.70;0.32;;;10.80;99.90;;;;;;5076760;28;20026;-78
2022/04/07 04:57:15;;;;;;;2.13;0.70;;;10.80;99.90;;;;;;5058258;28;20369;-78
2022/04/07 04:59:41;;;;;;;0.95;0.40;;;10.80;99.90;;;;;;5076590;28;20338;-78
2022/04/07 05:02:06;;;;;;;0.90;0.38;;;10.80;99.90;;;;;;5076526;28;20511;-78
2022/04/07 05:04:32;;;;;;;0.52;0.30;;;10.90;99.90;;;;;;5058022;28;20055;-78
2022/04/07 05:06:58;;;;;;;1.17;0.30;;;10.90;99.90;;;;;;5058831;28;20052;-78
2022/04/07 05:09:24;;;;;;;0.60;0.40;;;10.80;99.90;;;;;;5075449;28;20438;-77
2022/04/07 05:11:49;;;;;;;1.30;0.50;;;10.80;99.90;;;;;;5076288;28;20066;-78
2022/04/07 05:14:15;;;;;;;1.30;0.50;;;10.90;99.90;;;;;;5076238;28;20477;-77
2022/04/07 05:16:41;;;;;;;1.10;0.50;;;10.90;99.90;;;;;;5058330;28;20127;-78
2022/04/07 05:19:06;;;;;;;0.70;0.40;;;10.80;99.90;;;;;;5075919;28;20025;-77
2022/04/07 05:21:32;;;;;;;0.98;0.43;;;10.80;99.90;;;;;;5057558;28;20151;-78
2022/04/07 05:23:58;;;;;;;1.10;0.40;;;10.80;99.90;;;;;;5054725;28;20080;-77
2022/04/07 05:26:23;;;;;;;1.92;0.40;;;10.80;99.90;;;;;;5054209;28;20466;-78
2022/04/07 05:28:49;;;;;;;0.60;0.40;;;10.80;99.90;;;;;;5054915;28;20473;-77
2022/04/07 05:31:14;;;;;;;3.05;0.40;;;10.80;99.90;;;;;;5055409;28;20024;-76
2022/04/07 05:33:41;;;;;;;0.57;0.40;;;10.90;99.90;;;;;;5055034;28;20017;-77
2022/04/07 05:36:06;;;;;;;0.60;0.30;;;10.90;99.90;;;;;;5055344;28;20029;-77
2022/04/07 05:38:32;;;;;;;0.30;0.30;;;10.90;99.90;;;;;;5070792;28;20036;-77
2022/04/07 05:40:58;;;;;;;0.60;0.40;;;10.90;99.90;;;;;;5055543;28;20466;-77
2022/04/07 05:43:23;;;;;;;0.40;0.22;;;10.90;99.90;;;;;;5053616;28;20052;-78
2022/04/07 05:45:50;;;;;;;0.85;0.38;;;11.00;99.90;;;;;;5054369;28;20035;-78
2022/04/07 05:48:17;;;;;;;2.30;0.40;;;11.00;99.90;;;;;;5055514;28;20066;-77
2022/04/07 05:50:42;;;;;;;1.23;0.90;;;11.00;99.90;;;;;;5053846;28;20119;-77
2022/04/07 05:53:10;;;;;;;3.50;0.50;;;11.00;99.90;;;;;;5055561;28;20513;-77
2022/04/07 05:55:36;;;;;;;0.70;0.32;;;11.00;99.90;;;;;;5070507;28;20111;-78
2022/04/07 05:58:03;;;;;;;0.30;0.30;;;11.10;99.90;;;;;;5055295;28;20032;-77
2022/04/07 06:00:29;;;;;;;1.60;0.40;;;11.00;99.90;;;;;;5053884;28;20032;-77
2022/04/07 06:02:54;;;;;;;0.43;0.20;;;11.10;99.90;;;;;;5054184;28;20025;-76
2022/04/07 06:05:20;;;;;;;0.57;0.20;;;11.00;99.90;;;;;;5053761;28;20017;-77
2022/04/07 06:07:46;;;;;;;0.30;0.22;;;11.00;99.90;;;;;;5055355;28;20393;-77
2022/04/07 06:10:12;;;;;;;1.17;0.28;;;11.00;99.90;;;;;;5053905;28;20512;-77
2022/04/07 06:12:42;;;;;;;0.45;0.30;;;11.00;99.90;;;;;;5054552;28;20021;-77
2022/04/07 06:15:08;;;;;;;0.20;0.20;;;11.00;99.90;;;;;;5054113;28;20021;-77
2022/04/07 06:17:39;;;;;;;0.95;0.28;;;10.90;99.90;;;;;;5054208;28;20104;-77
2022/04/07 06:20:10;;;;;;;0.28;0.28;;;10.90;99.90;;;;;;5053726;28;20056;-77
2022/04/07 06:22:36;;;;;;;0.80;0.20;;;10.80;99.90;;;;;;5058749;28;20086;-77
2022/04/07 06:25:02;;;;;;;0.82;0.20;;;10.80;99.90;;;;;;5074877;28;20020;-77
2022/04/07 06:27:39;;;;;;;3.28;0.40;;;10.80;99.90;;;;;;5056443;28;20060;-77
2022/04/07 06:30:06;;;;;;;0.40;0.10;;;10.90;99.90;;;;;;5074734;28;20028;-77
2022/04/07 06:32:32;;;;;;;0.22;0.13;;;10.90;99.90;;;;;;5074073;28;20021;-77
2022/04/07 06:34:58;;;;;;;0.52;0.20;;;10.90;99.90;;;;;;5056799;28;20017;-77
2022/04/07 06:37:24;;;;;;;0.20;0.20;;;11.00;99.90;;;;;;5056140;28;20077;-77
2022/04/07 06:39:50;;;;;;;0.70;0.22;;;10.90;99.90;;;;;;5056354;28;20037;-77
2022/04/07 06:42:15;;;;;;;0.50;0.10;;;10.90;99.90;;;;;;5074190;28;20442;-77
2022/04/07 06:44:41;;;;;;;0.50;0.20;;;10.90;99.90;;;;;;5073959;28;20095;-77
2022/04/07 06:47:07;;;;;;;1.50;0.25;;;11.00;99.90;;;;;;5073622;28;20024;-76
2022/04/07 06:49:33;;;;;;;0.90;0.20;;;11.00;99.90;;;;;;5056186;28;20021;-76
2022/04/07 06:51:58;;;;;;;2.05;0.22;;;11.00;99.90;;;;;;5073176;28;20028;-77
2022/04/07 06:54:24;;;;;;;0.45;0.15;;;11.00;99.90;;;;;;5055990;28;20044;-77
2022/04/07 06:56:49;;;;;;;1.10;0.30;;;11.00;99.90;;;;;;5056568;28;20034;-77
2022/04/07 06:59:15;;;;;;;1.92;0.35;;;11.00;99.90;;;;;;5074115;28;20051;-76
2022/04/07 07:01:41;;;;;;;0.10;0.10;;;11.10;99.90;;;;;;5073704;28;20472;-76
2022/04/07 07:04:07;;;;;;;0.20;0.10;;;11.00;99.90;;;;;;5073930;28;20023;-77
2022/04/07 07:06:33;;;;;;;0.38;0.10;;;11.00;99.90;;;;;;5055788;28;20024;-77
2022/04/07 07:08:58;;;;;;;0.10;0.10;;;11.00;99.90;;;;;;5073691;28;20343;-77
2022/04/07 07:11:24;;;;;;;1.85;0.52;;;11.00;99.90;;;;;;5055539;28;20051;-77
2022/04/07 07:13:50;;;;;;;0.40;0.30;;;11.00;99.90;;;;;;5072676;28;20052;-76
2022/04/07 07:16:15;;;;;;;2.85;0.20;;;11.00;99.90;;;;;;5070371;28;20450;-77
2022/04/07 07:18:42;;;;;;;0.90;0.10;;;11.00;99.90;;;;;;5068715;28;20027;-77
2022/04/07 07:21:08;;;;;;;0.47;0.20;;;11.00;99.90;;;;;;5054161;28;20021;-77
2022/04/07 07:23:33;;;;;;;0.30;0.10;;;11.00;99.90;;;;;;5065156;28;20059;-76
2022/04/07 07:25:59;;;;;;;0.38;0.13;;;10.90;99.90;;;;;;5056024;28;20036;-77
2022/04/07 07:28:25;;;;;;;1.27;0.20;;;10.90;99.90;;;;;;5086693;28;20028;-77
2022/04/07 07:30:50;;;;;;;3.00;0.30;;;11.00;99.90;;;;;;5059425;28;20020;-77
2022/04/07 07:33:16;;;;;;;1.70;0.30;;;11.00;99.90;;;;;;5061828;28;20174;-76
2022/04/07 07:35:45;;;;;;;2.40;0.30;;;11.00;99.90;;;;;;5069704;28;20071;-77
2022/04/07 07:38:12;;;;;;;1.65;0.30;;;11.00;99.90;;;;;;5086702;28;20457;-77
2022/04/07 07:40:38;;;;;;;0.20;0.20;;;11.00;99.90;;;;;;5057196;28;20020;-77
2022/04/07 07:43:04;;;;;;;0.35;0.20;;;11.10;99.90;;;;;;5081193;28;20387;-77
2022/04/07 07:45:32;;;;;;;1.33;0.20;;;11.10;99.90;;;;;;5057152;28;20035;-77
2022/04/07 07:47:57;;;;;;;2.25;0.30;;;11.20;99.90;;;;;;5084916;28;20028;-77
2022/04/07 07:50:23;;;;;;;2.53;0.22;;;11.20;99.90;;;;;;5055759;28;20073;-77
2022/04/07 07:52:50;;;;;;;4.05;0.20;;;11.30;99.90;;;;;;5064794;28;20487;-77
2022/04/07 07:55:15;;;;;;;0.28;0.10;;;11.30;99.90;;;;;;5063129;28;20036;-77
2022/04/07 07:57:41;;;;;;;2.28;0.30;;;11.40;99.90;;;;;;5075356;28;20025;-77
2022/04/07 08:00:09;;;;;;;0.70;0.28;;;11.50;99.90;;;;;;5068624;28;20109;-77
2022/04/07 08:02:36;;;;;;;4.30;0.45;;;11.60;99.90;;;;;;5074927;28;20443;-77
2022/04/07 08:05:02;;;;;;;0.85;0.30;;;11.60;99.90;;;;;;5063698;28;20175;-77
2022/04/07 08:07:28;;;;;;;0.95;0.15;;;11.70;99.90;;;;;;5082342;28;20032;-77
2022/04/07 08:09:56;;;;;;;1.38;0.38;;;11.80;99.90;;;;;;5074314;28;20044;-77
2022/04/07 08:12:25;;;;;;;6.18;0.70;;;11.80;99.90;;;;;;5055074;28;20021;-77
2022/04/07 08:14:51;;;;;;;1.58;0.30;;;11.90;99.90;;;;;;5071041;28;20028;-76
2022/04/07 08:17:16;;;;;;;0.70;0.38;;;12.00;99.90;;;;;;5062717;28;20028;-76
2022/04/07 08:19:42;;;;;;;3.20;0.30;;;12.00;99.90;;;;;;5057261;28;20037;-76
2022/04/07 08:22:07;;;;;;;1.95;0.40;;;12.10;99.90;;;;;;5069771;28;20473;-77
2022/04/07 08:24:34;;;;;;;1.65;0.25;;;12.10;99.90;;;;;;5067304;28;20027;-77
2022/04/07 08:27:01;;;;;;;0.88;0.30;;;12.10;99.90;;;;;;5060530;28;20036;-76
2022/04/07 08:29:26;;;;;;;1.45;0.30;;;12.10;99.90;;;;;;5058971;28;20020;-78
2022/04/07 08:31:52;;;;;;;2.70;0.40;;;12.10;99.90;;;;;;5067896;28;20020;-77
2022/04/07 08:34:19;;;;;;;2.58;0.30;;;12.10;99.90;;;;;;5055109;28;20032;-77
2022/04/07 08:36:45;;;;;;;2.40;0.40;;;12.00;99.90;;;;;;5064544;28;20082;-77
2022/04/07 08:39:10;;;;;;;1.67;0.28;;;12.00;99.90;;;;;;5071745;28;20032;-77
2022/04/07 08:41:39;;;;;;;1.77;0.28;;;11.90;99.90;;;;;;5069146;28;20079;-77
2022/04/07 08:44:04;;;;;;;0.40;0.20;;;12.00;99.90;;;;;;5085907;28;20469;-77
2022/04/07 08:46:32;;;;;;;0.93;0.20;;;12.10;99.90;;;;;;5055297;28;20032;-76
2022/04/07 08:49:01;;;;;;;2.65;0.43;;;12.20;99.90;;;;;;5062978;28;20689;-77
2022/04/07 08:51:28;;;;;;;0.75;0.20;;;12.30;99.90;;;;;;5061024;28;20103;-77
2022/04/07 08:53:54;;;;;;;1.70;0.32;;;12.30;99.90;;;;;;5070952;28;20051;-77
2022/04/07 08:56:20;;;;;;;0.90;0.22;;;12.30;99.90;;;;;;5073207;28;20032;-77
2022/04/07 08:58:45;;;;;;;0.85;0.47;;;12.30;99.90;;;;;;5057431;28;20035;-77
2022/04/07 09:01:11;;;;;;;1.48;0.57;;;12.30;99.90;;;;;;5067436;28;20103;-77
2022/04/07 09:03:37;;;;;;;0.35;0.30;;;12.20;99.90;;;;;;5056023;28;20050;-78
2022/04/07 09:06:03;;;;;;;0.32;0.30;;;12.30;99.90;;;;;;5061034;28;20021;-78
2022/04/07 09:08:30;;;;;;;2.25;0.20;;;12.30;99.90;;;;;;5056905;28;20031;-78
2022/04/07 09:10:57;;;;;;;1.23;0.20;;;12.40;99.90;;;;;;5071305;28;20025;-78
2022/04/07 09:13:23;;;;;;;0.75;0.40;;;12.40;99.90;;;;;;5071903;28;20017;-78
2022/04/07 09:15:49;;;;;;;0.93;0.25;;;12.40;99.90;;;;;;5073083;28;20025;-77
2022/04/07 09:18:24;;;;;;;0.73;0.38;;;12.40;99.90;;;;;;5054986;28;20032;-77
2022/04/07 09:20:50;;;;;;;0.52;0.30;;;12.40;99.90;;;;;;5059504;28;20320;-78
2022/04/07 09:23:17;;;;;;;0.90;0.20;;;12.40;99.90;;;;;;5086589;28;20122;-77
2022/04/07 09:25:49;;;;;;;0.30;0.20;;;12.20;99.90;;;;;;5076117;28;20017;-78
2022/04/07 09:28:30;;;;;;;;;;;12.10;99.90;;;;;;5069218;28;20074;-77
2022/04/07 09:30:57;;;;;;;0.98;0.10;;;12.00;99.90;;;;;;5072676;28;19948;-77
2022/04/07 09:33:25;;;;;;;1.10;0.60;;;11.90;99.90;;;;;;5070635;28;20468;-78
2022/04/07 09:36:11;;;;;;;0.30;0.20;;;12.00;99.90;;;;;;5057578;28;20024;-77
2022/04/07 09:38:38;;;;;;;1.08;0.30;;;12.00;99.90;;;;;;5083279;28;20035;-78
2022/04/07 09:41:09;;;;;;;0.47;0.32;;;11.90;99.90;;;;;;5063374;28;20078;-77
2022/04/07 09:43:45;;;;;;;0.57;0.20;;;11.90;99.90;;;;;;5071003;28;20492;-77
2022/04/07 09:46:13;;;;;;;2.15;0.95;;;11.90;99.90;;;;;;5068688;28;20059;-77
2022/04/07 09:48:39;;;;;;;2.28;0.20;;;12.00;99.90;;;;;;5062770;28;20020;-78
2022/04/07 09:51:09;;;;;;;1.05;0.20;;;12.00;99.90;;;;;;5061631;28;20363;-78
2022/04/07 09:53:39;;;;;;;1.30;0.30;;;12.10;99.90;;;;;;5088208;28;20052;-78
2022/04/07 09:56:06;;;;;;;0.70;0.20;;;12.30;99.90;;;;;;5076525;28;20035;-78
2022/04/07 09:58:35;;;;;;;0.28;0.17;;;12.30;99.90;;;;;;5065337;28;20033;-78
2022/04/07 10:01:02;;;;;;;0.43;0.20;;;12.40;99.90;;;;;;5065904;28;20024;-78
2022/04/07 10:03:30;;;;;;;0.75;0.20;;;12.50;99.90;;;;;;5075547;28;20031;-77
2022/04/07 10:05:57;;;;;;;0.80;0.40;;;12.60;99.90;;;;;;5073182;28;20016;-78
2022/04/07 10:08:24;;;;;;;0.98;0.38;;;12.70;99.90;;;;;;5084517;28;20372;-77
2022/04/07 10:10:50;;;;;;;0.30;0.17;;;12.90;99.90;;;;;;5061880;28;20040;-77
2022/04/07 10:13:16;;;;;;;0.35;0.17;;;13.00;99.90;;;;;;5067886;28;20410;-77
2022/04/07 10:15:42;;;;;;;0.10;0.10;;;13.10;99.90;;;;;;5074057;28;20127;-77
2022/04/07 10:18:15;;;;;;;1.60;0.20;;;13.00;99.90;;;;;;5086971;28;20111;-77
2022/04/07 10:20:47;;;;;;;1.63;0.20;;;13.10;99.90;;;;;;5080602;28;20077;-78
2022/04/07 10:23:26;;;;;;;1.92;0.20;;;13.10;99.90;;;;;;5056066;28;20051;-77
2022/04/07 10:25:54;;;;;;;0.85;0.13;;;13.30;99.90;;;;;;5066350;28;20032;-78
2022/04/07 10:28:20;;;;;;;1.77;0.35;;;13.40;99.90;;;;;;5050131;28;20115;-77
2022/04/07 10:30:51;;;;;;;0.88;0.10;;;13.60;99.90;;;;;;5061222;28;20025;-77
2022/04/07 10:33:38;;;;;;;0.80;0.20;;;13.60;99.90;;;;;;5055655;28;20029;-78
2022/04/07 10:36:30;;;;;;;0.52;0.10;;;13.60;99.90;;;;;;5039865;28;20074;-77
2022/04/07 10:38:57;;;;;;;;;;;13.60;99.90;;;;;;5057657;28;20033;-77
2022/04/07 10:41:38;;;;;;;2.75;0.20;;;13.60;99.90;;;;;;5058963;28;19956;-77
2022/04/07 10:44:10;;;;;;;0.15;0.08;;;13.60;99.90;;;;;;5040085;28;20021;-78
2022/04/07 10:46:36;;;;;;;1.17;0.17;;;13.70;99.90;;;;;;5060240;28;20491;-78
2022/04/07 10:49:07;;;;;;;1.10;0.30;;;13.70;99.90;;;;;;5062263;28;20453;-78
2022/04/07 10:52:04;;;;;;;0.10;0.10;;;13.80;99.90;;;;;;5052826;28;20047;-77
2022/04/07 10:54:30;;;;;;;0.90;0.10;;;13.70;99.90;;;;;;5048314;28;20025;-79
2022/04/07 10:56:59;;;;;;;1.27;0.10;;;13.60;99.90;;;;;;5062381;28;20036;-78
2022/04/07 10:59:26;;;;;;;0.35;0.20;;;13.70;99.90;;;;;;5054284;28;20037;-78
2022/04/07 11:01:53;;;;;;;1.23;0.10;;;13.70;99.90;;;;;;5066997;28;20021;-78
2022/04/07 11:04:21;;;;;;;0.82;0.10;;;13.80;99.90;;;;;;5055707;28;20021;-77
2022/04/07 11:07:05;;;;;;;0.52;0.10;;;13.90;99.90;;;;;;5069786;28;20170;-78
2022/04/07 11:09:55;;;;;;;1.02;0.20;;;14.00;99.90;;;;;;5052277;28;20393;-78
2022/04/07 11:12:37;;;;;;;2.45;0.20;;;14.00;99.90;;;;;;5043493;28;20031;-78
2022/04/07 11:15:03;;;;;;;0.10;0.00;;;14.00;99.90;;;;;;5062324;28;20048;-78
2022/04/07 11:17:33;;;;;;;2.45;0.10;;;14.00;99.90;;;;;;5053266;28;20059;-78
2022/04/07 11:20:19;;;;;;;0.15;0.00;;;14.00;99.90;;;;;;5053067;28;20020;-78
2022/04/07 11:22:58;;;;;;;0.80;0.17;;;14.00;99.90;;;;;;5065950;28;20048;-78
2022/04/07 11:25:33;;;;;;;0.63;0.30;;;13.90;99.90;;;;;;5086688;28;20108;-78
2022/04/07 11:28:05;;;;;;;0.43;0.20;;;13.90;99.90;;;;;;5057397;28;20024;-78
2022/04/07 11:30:54;;;;;;;0.10;0.03;;;13.90;99.90;;;;;;5063959;28;20020;-78
2022/04/07 11:36:11;;;;;;;1.20;0.20;;;13.80;99.90;;;;;;5073551;28;20025;-78
2022/04/07 11:38:43;;;;;;;1.23;0.10;;;13.80;99.90;;;;;;5062802;28;20545;-78
2022/04/07 11:41:10;;;;;;;0.13;0.00;;;13.80;99.90;;;;;;5079461;28;20025;-78
2022/04/07 11:43:39;;;;;;;0.80;0.05;;;13.80;99.90;;;;;;5068318;28;20039;-78
2022/04/07 11:46:04;;;;;;;0.30;0.20;;;13.80;99.90;;;;;;5074785;28;20035;-78
2022/04/07 11:48:31;;;;;;;0.20;0.13;;;13.80;99.90;;;;;;5081832;28;20024;-78
2022/04/07 11:51:00;;;;;;;0.52;0.05;;;13.90;99.90;;;;;;5082192;28;20105;-78
2022/04/07 11:53:30;;;;;;;0.10;0.08;;;14.00;99.90;;;;;;5056524;28;20021;-78
2022/04/07 11:56:10;;;;;;;0.38;0.10;;;14.10;99.90;;;;;;5086811;28;20023;-78
2022/04/07 11:58:36;;;;;;;0.22;0.10;;;14.10;99.90;;;;;;5060835;28;20024;-78
2022/04/07 12:01:11;;;;;;;0.75;0.10;;;14.20;99.90;;;;;;5077812;28;20024;-78
2022/04/07 12:03:40;;;;;;;1.60;0.17;;;14.20;99.90;;;;;;5068132;28;20066;-78
2022/04/07 12:06:07;;;;;;;0.30;0.10;;;14.20;99.90;;;;;;5069752;28;20492;-78
2022/04/07 12:08:33;;;;;;;0.20;0.10;;;14.20;99.90;;;;;;5060059;28;20062;-78
2022/04/07 12:10:59;;;;;;;0.95;0.20;;;14.20;99.90;;;;;;5059949;28;20060;-78
2022/04/07 12:13:24;;;;;;;1.35;0.10;;;14.20;99.90;;;;;;5067444;28;20483;-78
2022/04/07 12:15:50;;;;;;;0.40;0.10;;;14.10;99.90;;;;;;5069010;28;20122;-78
2022/04/07 12:18:29;;;;;;;0.50;0.15;;;14.10;99.90;;;;;;5058070;28;20365;-78
2022/04/07 12:21:00;;;;;;;1.55;0.10;;;14.10;99.90;;;;;;5060768;28;20112;-78
2022/04/07 12:23:27;;;;;;;0.32;0.15;;;14.10;99.90;;;;;;5085810;28;20435;-78
2022/04/07 12:26:02;;;;;;;1.13;0.10;;;14.10;99.90;;;;;;5054869;28;20024;-78
2022/04/07 12:28:38;;;;;;;1.13;0.10;;;14.00;99.90;;;;;;5064720;28;20074;-78
2022/04/07 12:31:19;;;;;;;1.88;0.10;;;14.10;99.90;;;;;;5064971;28;20024;-78
2022/04/07 12:33:47;;;;;;;0.20;0.10;;;14.20;99.90;;;;;;5055255;28;20024;-78
2022/04/07 12:36:13;;;;;;;0.03;0.03;;;14.20;99.90;;;;;;5066333;28;20149;-78
2022/04/07 12:38:41;;;;;;;0.20;0.10;;;14.20;99.90;;;;;;5080297;28;20085;-78
2022/04/07 12:41:13;;;;;;;0.30;0.10;;;14.20;99.90;;;;;;5080637;28;20450;-78
2022/04/07 12:43:46;;;;;;;0.52;0.20;;;14.20;99.90;;;;;;5071773;28;20119;-77
2022/04/07 12:46:12;;;;;;;0.03;0.00;;;14.10;99.90;;;;;;5061064;28;20484;-78
2022/04/07 12:48:57;;;;;;;0.40;0.00;;;14.00;99.90;;;;;;5069071;28;20107;-78
2022/04/07 12:51:23;;;;;;;0.30;0.10;;;14.10;99.90;;;;;;5090881;28;20043;-78
2022/04/07 12:53:49;;;;;;;0.73;0.10;;;14.20;99.90;;;;;;5058503;28;20434;-78